Time;durP1;ratioP1;P1;durP2;ratioP2;P2;SDS_P1;SDS_P2;PMS_P1;PMS_P2;Temp;Humidity;BMP_temperature;BMP_pressure;BME280_temperature;BME280_humidity;BME280_pressure;Samples;Min_cycle;Max_cycle;Signal;HPM_P1;HPM_P2
2022/03/09 00:01:16;;;;;;;11.95;3.33;;;;;;;5.76;34.31;99133.69;4484019;31;20140;-80
2022/03/09 00:03:42;;;;;;;11.10;3.72;;;;;;;5.75;34.34;99130.19;4472852;31;20432;-81
2022/03/09 00:06:07;;;;;;;11.32;3.53;;;;;;;5.79;34.26;99125.75;4491426;31;20118;-80
2022/03/09 00:08:33;;;;;;;10.70;3.55;;;;;;;5.78;34.22;99127.50;4485551;31;20463;-79
2022/03/09 00:10:58;;;;;;;10.05;3.47;;;;;;;5.78;34.26;99130.13;4483374;32;20140;-80
2022/03/09 00:13:24;;;;;;;12.10;3.80;;;;;;;5.71;34.56;99139.03;4483403;32;20162;-80
2022/03/09 00:15:49;;;;;;;10.07;3.30;;;;;;;5.75;34.22;99145.88;4484388;31;20092;-80
2022/03/09 00:18:14;;;;;;;10.40;3.40;;;;;;;5.50;34.41;99145.72;4484651;31;20088;-81
2022/03/09 00:20:40;;;;;;;11.65;4.05;;;;;;;5.76;34.06;99146.75;4483354;32;20115;-80
2022/03/09 00:23:06;;;;;;;10.40;3.58;;;;;;;5.60;34.41;99146.31;4485148;31;20194;-81
2022/03/09 00:25:31;;;;;;;11.38;3.78;;;;;;;5.77;34.18;99146.69;4485532;32;20107;-81
2022/03/09 00:27:57;;;;;;;11.68;3.30;;;;;;;5.78;34.29;99137.97;4489940;31;20088;-80
2022/03/09 00:30:23;;;;;;;10.38;3.62;;;;;;;5.86;34.26;99149.03;4486034;31;20160;-81
2022/03/09 00:32:48;;;;;;;12.85;4.20;;;;;;;5.90;34.14;99137.59;4487054;31;20092;-78
2022/03/09 00:35:14;;;;;;;11.48;3.72;;;;;;;5.83;33.88;99135.19;4484102;32;20484;-76
2022/03/09 00:37:40;;;;;;;11.25;3.15;;;;;;;5.53;34.49;99143.03;4471560;31;20134;-79
2022/03/09 00:40:06;;;;;;;12.20;3.75;;;;;;;5.78;34.16;99142.34;4483942;32;20118;-80
2022/03/09 00:42:37;;;;;;;11.73;3.58;;;;;;;5.85;33.87;99139.50;4484074;32;20973;-80
2022/03/09 00:45:03;;;;;;;10.93;3.65;;;;;;;5.66;34.20;99135.69;4484084;32;20120;-79
2022/03/09 00:47:29;;;;;;;10.70;3.30;;;;;;;5.71;34.28;99139.03;4485901;32;20361;-79
2022/03/09 00:49:54;;;;;;;9.77;2.95;;;;;;;5.69;34.30;99135.62;4486974;31;20194;-79
2022/03/09 00:52:19;;;;;;;13.88;3.97;;;;;;;5.84;33.81;99143.00;4486130;32;20112;-79
2022/03/09 00:54:45;;;;;;;10.50;3.10;;;;;;;5.67;34.06;99133.03;4487207;32;20359;-79
2022/03/09 00:57:10;;;;;;;12.73;4.30;;;;;;;5.84;34.03;99124.72;4487162;31;20085;-79
2022/03/09 00:59:36;;;;;;;10.40;3.40;;;;;;;5.90;34.12;99126.28;4485965;32;20438;-79
2022/03/09 01:02:01;;;;;;;11.68;3.85;;;;;;;5.97;34.26;99113.91;4487348;32;20099;-79
2022/03/09 01:04:26;;;;;;;12.00;3.40;;;;;;;5.88;34.85;99125.47;4487291;31;20116;-78
2022/03/09 01:06:52;;;;;;;10.25;3.35;;;;;;;5.87;34.73;99113.28;4486917;32;20113;-78
2022/03/09 01:09:17;;;;;;;12.20;3.80;;;;;;;5.96;34.60;99109.59;4487666;31;20092;-78
2022/03/09 01:11:43;;;;;;;10.38;3.70;;;;;;;5.90;34.77;99106.22;4485671;32;20401;-79
2022/03/09 01:14:08;;;;;;;11.95;3.80;;;;;;;5.81;34.89;99108.25;4486850;32;20108;-78
2022/03/09 01:16:34;;;;;;;12.35;3.72;;;;;;;5.59;34.99;99116.72;4485453;32;20116;-81
2022/03/09 01:18:59;;;;;;;11.82;3.80;;;;;;;5.56;34.92;99118.56;4486323;32;20084;-82
2022/03/09 01:21:24;;;;;;;10.68;3.60;;;;;;;5.24;35.38;99121.19;4487849;31;20127;-80
2022/03/09 01:23:50;;;;;;;11.70;4.20;;;;;;;5.53;34.86;99108.22;4490616;31;20088;-80
2022/03/09 01:26:15;;;;;;;11.93;4.10;;;;;;;5.59;35.02;99110.66;4487468;31;20092;-80
2022/03/09 01:28:41;;;;;;;12.45;3.87;;;;;;;5.61;35.18;99101.84;4485842;32;20126;-80
2022/03/09 01:31:06;;;;;;;10.65;3.72;;;;;;;5.66;35.30;99099.97;4486868;31;20141;-80
2022/03/09 01:33:31;;;;;;;12.52;4.07;;;;;;;5.70;35.58;99109.44;4487040;31;20081;-82
2022/03/09 01:35:57;;;;;;;13.93;4.50;;;;;;;5.70;35.56;99112.06;4486895;31;20414;-84
2022/03/09 01:38:22;;;;;;;13.20;4.75;;;;;;;5.60;35.73;99115.84;4490700;31;20132;-82
2022/03/09 01:40:48;;;;;;;16.35;5.53;;;;;;;5.66;35.77;99131.34;4480618;31;20176;-81
2022/03/09 01:43:14;;;;;;;13.48;4.62;;;;;;;5.49;35.40;99130.97;4490822;31;20084;-83
2022/03/09 01:45:40;;;;;;;13.35;4.97;;;;;;;5.64;35.16;99133.16;4503643;31;20760;-82
2022/03/09 01:48:05;;;;;;;12.63;5.07;;;;;;;5.66;35.24;99135.69;4487721;31;20084;-82
2022/03/09 01:50:31;;;;;;;13.32;5.30;;;;;;;5.66;35.34;99131.34;4492171;31;20087;-82
2022/03/09 01:52:56;;;;;;;14.23;5.72;;;;;;;5.74;35.61;99128.50;4477512;31;20157;-82
2022/03/09 01:55:22;;;;;;;14.30;5.53;;;;;;;5.74;35.79;99136.34;4491136;31;20136;-82
2022/03/09 01:57:47;;;;;;;16.83;5.80;;;;;;;5.75;35.69;99132.81;4495152;31;20470;-80
2022/03/09 02:00:13;;;;;;;13.50;5.20;;;;;;;5.81;35.70;99130.00;4495940;31;20088;-82
2022/03/09 02:02:39;;;;;;;16.50;5.50;;;;;;;5.82;35.68;99128.28;4472647;32;20558;-83
2022/03/09 02:05:05;;;;;;;15.98;5.03;;;;;;;5.82;36.01;99128.28;4487138;31;20116;-83
2022/03/09 02:10:18;;;;;;;14.13;5.03;;;;;;;5.82;35.95;99136.12;4487347;31;20168;-83
2022/03/09 02:12:43;;;;;;;15.23;5.32;;;;;;;5.77;35.89;99141.47;4485516;32;20112;-83
2022/03/09 02:15:08;;;;;;;14.82;5.57;;;;;;;5.86;35.81;99133.34;4486671;31;20092;-83
2022/03/09 02:17:34;;;;;;;13.15;5.53;;;;;;;5.91;35.64;99128.84;4486569;31;20134;-82
2022/03/09 02:19:59;;;;;;;13.95;5.32;;;;;;;5.75;35.77;99127.59;4485446;32;20108;-83
2022/03/09 02:22:34;;;;;;;14.15;5.22;;;;;;;5.82;35.61;99120.44;4486605;31;20092;-82
2022/03/09 02:25:02;;;;;;;13.50;4.95;;;;;;;5.91;35.64;99128.84;4486675;32;20080;-82
2022/03/09 02:27:27;;;;;;;17.35;5.85;;;;;;;5.93;35.65;99127.94;4486452;31;20089;-81
2022/03/09 02:29:54;;;;;;;15.65;5.60;;;;;;;5.96;35.79;99133.13;4486654;31;20088;-81
2022/03/09 02:32:20;;;;;;;16.52;5.82;;;;;;;5.94;35.86;99133.13;4486435;31;20092;-81
2022/03/09 02:34:45;;;;;;;15.38;5.57;;;;;;;6.00;35.76;99127.75;4485339;32;20096;-82
2022/03/09 02:37:11;;;;;;;17.35;5.95;;;;;;;5.66;35.62;99135.69;4487030;31;20092;-82
2022/03/09 02:39:37;;;;;;;14.60;5.80;;;;;;;5.92;35.26;99127.09;4484961;32;20119;-83
2022/03/09 02:42:03;;;;;;;14.60;5.60;;;;;;;5.93;35.39;99135.78;4485484;32;20455;-82
2022/03/09 02:44:29;;;;;;;12.75;5.50;;;;;;;5.99;35.52;99128.66;4485467;32;20088;-83
2022/03/09 02:46:55;;;;;;;15.15;6.18;;;;;;;6.00;35.70;99126.88;4489301;31;20134;-82
2022/03/09 02:49:20;;;;;;;18.17;5.72;;;;;;;5.96;35.65;99127.88;4487917;31;20112;-82
2022/03/09 02:51:49;;;;;;;14.10;5.10;;;;;;;5.98;35.69;99129.53;4502383;31;20128;-82
2022/03/09 02:54:15;;;;;;;15.27;5.35;;;;;;;5.97;36.06;99133.06;4486661;31;20159;-83
2022/03/09 02:56:40;;;;;;;16.62;5.60;;;;;;;5.98;36.02;99137.38;4487856;31;20373;-83
2022/03/09 02:59:06;;;;;;;15.20;5.55;;;;;;;5.95;36.00;99134.88;4488088;31;20170;-83
2022/03/09 03:01:31;;;;;;;17.45;6.25;;;;;;;5.95;35.79;99136.59;4488001;31;20126;-83
2022/03/09 03:03:57;;;;;;;16.45;6.07;;;;;;;5.99;35.61;99123.44;4487936;31;20340;-83
2022/03/09 03:06:23;;;;;;;16.90;5.40;;;;;;;6.01;35.64;99110.31;4499363;31;20416;-83
2022/03/09 03:08:49;;;;;;;14.35;4.95;;;;;;;6.00;35.80;99105.97;4485539;31;20127;-83
2022/03/09 03:11:15;;;;;;;13.45;5.07;;;;;;;5.98;35.96;99100.78;4485402;32;20507;-83
2022/03/09 03:13:41;;;;;;;14.50;4.65;;;;;;;5.97;36.17;99101.69;4496856;31;20130;-83
2022/03/09 03:16:07;;;;;;;13.45;4.65;;;;;;;5.95;36.01;99099.97;4487492;31;20432;-82
2022/03/09 03:18:33;;;;;;;13.93;5.10;;;;;;;5.97;35.76;99103.44;4502336;31;20382;-82
2022/03/09 03:20:59;;;;;;;12.98;4.18;;;;;;;5.91;35.40;99102.72;4502098;31;20108;-82
2022/03/09 03:23:26;;;;;;;13.57;4.60;;;;;;;5.93;35.22;99110.50;4487506;31;20519;-82
2022/03/09 03:25:52;;;;;;;13.90;5.32;;;;;;;5.90;35.32;99108.81;4487562;31;20110;-82
2022/03/09 03:28:19;;;;;;;15.25;5.47;;;;;;;5.91;35.43;99107.94;4487501;31;20375;-82
2022/03/09 03:30:45;;;;;;;15.27;5.20;;;;;;;5.94;35.31;99104.38;4501991;31;20155;-81
2022/03/09 03:33:11;;;;;;;14.23;5.12;;;;;;;5.90;35.29;99107.97;4501667;31;20363;-81
2022/03/09 03:35:37;;;;;;;14.85;4.97;;;;;;;5.91;35.36;99112.31;4487363;31;20114;-82
2022/03/09 03:38:02;;;;;;;14.90;5.32;;;;;;;5.93;35.65;99120.97;4473854;32;20122;-82
2022/03/09 03:40:28;;;;;;;15.35;5.05;;;;;;;5.95;35.44;99118.28;4471715;32;20096;-81
2022/03/09 03:42:53;;;;;;;15.13;5.72;;;;;;;5.98;35.30;99121.69;4485947;32;20143;-81
2022/03/09 03:45:19;;;;;;;15.13;5.15;;;;;;;6.00;35.12;99114.66;4485960;32;20448;-82
2022/03/09 03:47:44;;;;;;;13.82;4.70;;;;;;;5.99;35.13;99112.97;4471534;32;20187;-82
2022/03/09 03:50:10;;;;;;;14.57;5.30;;;;;;;6.06;35.02;99126.69;4468622;32;20112;-82
2022/03/09 03:52:35;;;;;;;14.35;5.50;;;;;;;6.04;34.90;99126.75;4470147;32;20353;-83
2022/03/09 03:55:01;;;;;;;13.10;4.90;;;;;;;6.11;35.12;99127.41;4468897;32;20088;-82
2022/03/09 03:57:26;;;;;;;14.75;5.00;;;;;;;6.13;35.16;99115.16;4468993;32;20097;-83
2022/03/09 03:59:51;;;;;;;12.57;5.05;;;;;;;6.14;35.20;99116.84;4469968;32;20419;-83
2022/03/09 04:02:17;;;;;;;13.55;4.80;;;;;;;6.12;35.29;99118.66;4470201;32;20081;-83
2022/03/09 04:04:42;;;;;;;14.43;4.93;;;;;;;6.14;35.13;99116.00;4468982;32;20168;-83
2022/03/09 04:07:08;;;;;;;15.02;5.32;;;;;;;6.15;34.87;99113.34;4475775;32;20119;-83
2022/03/09 04:09:33;;;;;;;12.35;4.60;;;;;;;6.17;34.61;99108.91;4485753;31;20084;-81
2022/03/09 04:11:59;;;;;;;15.48;5.18;;;;;;;6.19;34.83;99108.87;4485599;31;20089;-82
2022/03/09 04:14:24;;;;;;;14.82;4.68;;;;;;;6.17;35.00;99108.06;4485684;32;20132;-82
2022/03/09 04:16:50;;;;;;;13.60;4.90;;;;;;;6.18;35.11;99104.53;4485634;31;20093;-82
2022/03/09 04:19:15;;;;;;;11.07;4.50;;;;;;;6.25;35.05;99103.44;4485240;31;20115;-83
2022/03/09 04:21:41;;;;;;;13.32;5.07;;;;;;;6.20;34.93;99098.38;4484423;32;20154;-82
2022/03/09 04:24:06;;;;;;;12.65;4.40;;;;;;;6.25;34.91;99104.28;4484303;32;20349;-82
2022/03/09 04:26:32;;;;;;;12.68;4.85;;;;;;;6.28;34.82;99108.59;4485496;31;20108;-82
2022/03/09 04:28:59;;;;;;;14.10;5.18;;;;;;;6.32;34.72;99104.09;4484650;32;20413;-82
2022/03/09 04:31:25;;;;;;;14.23;5.35;;;;;;;6.33;34.30;99116.28;4484455;32;20144;-81
2022/03/09 04:33:50;;;;;;;12.73;4.37;;;;;;;6.07;34.09;99120.56;4485670;31;20092;-84
2022/03/09 04:36:15;;;;;;;12.35;4.60;;;;;;;6.27;33.84;99118.19;4485669;31;20456;-84
2022/03/09 04:38:41;;;;;;;12.75;4.70;;;;;;;6.26;34.17;99116.47;4485715;31;20112;-82
2022/03/09 04:41:06;;;;;;;14.15;4.93;;;;;;;6.15;34.15;99108.09;4482995;32;20096;-82
2022/03/09 04:43:32;;;;;;;15.38;5.03;;;;;;;5.86;34.96;99111.59;4483099;32;20122;-82
2022/03/09 04:45:58;;;;;;;12.37;4.45;;;;;;;5.96;34.98;99106.97;4485257;31;20435;-82
2022/03/09 04:48:23;;;;;;;11.98;4.43;;;;;;;5.84;35.06;99110.78;4484119;32;20095;-82
2022/03/09 04:50:49;;;;;;;12.48;4.93;;;;;;;5.87;34.63;99116.78;4483906;32;20081;-82
2022/03/09 04:53:14;;;;;;;11.95;4.15;;;;;;;5.71;34.65;99118.97;4485210;31;20146;-81
2022/03/09 04:55:40;;;;;;;13.52;4.80;;;;;;;5.77;34.63;99125.78;4483898;32;20105;-82
2022/03/09 04:58:05;;;;;;;13.85;4.57;;;;;;;5.93;34.53;99120.09;4484985;31;20096;-81
2022/03/09 05:00:30;;;;;;;13.00;5.72;;;;;;;5.94;34.70;99122.66;4485149;31;20084;-81
2022/03/09 05:02:56;;;;;;;12.90;4.78;;;;;;;5.89;34.81;99120.22;4483701;32;20129;-81
2022/03/09 05:05:21;;;;;;;14.13;4.70;;;;;;;5.97;34.60;99114.78;4484866;32;20092;-82
2022/03/09 05:07:47;;;;;;;13.07;4.72;;;;;;;6.08;34.36;99103.97;4484534;31;20118;-82
2022/03/09 05:10:12;;;;;;;12.63;4.47;;;;;;;6.06;34.42;99103.16;4483626;32;20107;-81
2022/03/09 05:12:38;;;;;;;14.65;5.57;;;;;;;5.98;34.36;99100.78;4484817;31;20420;-82
2022/03/09 05:15:04;;;;;;;14.68;4.82;;;;;;;5.93;34.24;99105.28;4483409;32;20528;-80
2022/03/09 05:17:30;;;;;;;12.88;5.25;;;;;;;5.98;34.13;99105.16;4484646;31;20127;-82
2022/03/09 05:19:55;;;;;;;13.50;4.40;;;;;;;6.09;33.96;99103.06;4484799;32;20141;-81
2022/03/09 05:22:21;;;;;;;15.13;4.85;;;;;;;6.05;33.78;99104.09;4483773;32;20105;-82
2022/03/09 05:24:46;;;;;;;13.48;4.57;;;;;;;6.02;34.11;99102.37;4483703;32;20116;-82
2022/03/09 05:27:12;;;;;;;13.23;4.78;;;;;;;6.10;34.10;99104.78;4483712;32;20112;-82
2022/03/09 05:29:37;;;;;;;12.25;4.57;;;;;;;6.21;33.49;99107.91;4484801;31;20097;-82
2022/03/09 05:32:04;;;;;;;13.38;4.70;;;;;;;6.23;33.56;99108.72;4485969;31;20073;-81
2022/03/09 05:34:29;;;;;;;12.85;4.57;;;;;;;6.17;33.67;99108.06;4487206;32;20153;-81
2022/03/09 05:36:55;;;;;;;12.40;4.43;;;;;;;6.27;33.66;99105.09;4485056;32;20147;-81
2022/03/09 05:39:20;;;;;;;14.20;5.28;;;;;;;6.25;33.52;99104.28;4485767;32;20088;-80
2022/03/09 05:41:47;;;;;;;14.70;5.25;;;;;;;6.29;33.61;99105.91;4486880;32;20454;-81
2022/03/09 05:44:13;;;;;;;13.47;5.00;;;;;;;6.40;33.72;99104.72;4485798;32;20120;-81
2022/03/09 05:46:38;;;;;;;14.60;4.65;;;;;;;6.47;33.21;99108.81;4486963;31;20384;-82
2022/03/09 05:49:05;;;;;;;13.57;4.78;;;;;;;6.52;32.99;99117.41;4487004;31;20130;-82
2022/03/09 05:51:31;;;;;;;13.40;4.95;;;;;;;6.57;33.06;99132.97;4502785;31;20485;-81
2022/03/09 05:53:56;;;;;;;12.43;4.80;;;;;;;6.57;32.94;99144.28;4502434;31;20132;-80
2022/03/09 05:56:22;;;;;;;14.20;4.82;;;;;;;6.58;33.03;99155.59;4502608;31;20127;-81
2022/03/09 05:58:47;;;;;;;12.70;5.25;;;;;;;6.64;33.05;99171.09;4471757;32;20458;-81
2022/03/09 06:01:13;;;;;;;13.00;5.15;;;;;;;6.62;33.18;99168.53;4493654;31;20373;-82
2022/03/09 06:03:38;;;;;;;14.80;5.28;;;;;;;6.17;33.88;99163.00;4485535;32;20124;-82
2022/03/09 06:06:04;;;;;;;12.90;5.45;;;;;;;6.40;33.70;99163.13;4488208;31;20111;-82
2022/03/09 06:08:29;;;;;;;14.68;4.68;;;;;;;6.29;33.96;99168.69;4502454;31;20123;-82
2022/03/09 06:10:55;;;;;;;13.98;5.30;;;;;;;6.19;34.04;99169.87;4488290;31;20142;-83
2022/03/09 06:13:21;;;;;;;12.55;4.78;;;;;;;6.42;34.08;99166.56;4502263;31;20435;-82
2022/03/09 06:15:48;;;;;;;13.05;4.93;;;;;;;6.51;34.30;99168.03;4488026;31;20119;-83
2022/03/09 06:18:13;;;;;;;13.88;5.20;;;;;;;6.62;34.37;99170.31;4502453;31;20506;-81
2022/03/09 06:20:39;;;;;;;13.10;4.82;;;;;;;6.72;34.15;99173.47;4487798;31;20088;-82
2022/03/09 06:23:04;;;;;;;14.27;5.20;;;;;;;6.66;34.05;99166.66;4487951;31;20127;-81
2022/03/09 06:25:30;;;;;;;14.93;5.18;;;;;;;6.82;33.30;99172.28;4488011;31;20104;-82
2022/03/09 06:27:56;;;;;;;15.63;5.25;;;;;;;6.75;33.17;99171.63;4502349;31;20104;-81
2022/03/09 06:30:21;;;;;;;14.65;5.37;;;;;;;6.87;32.87;99179.06;4502228;31;20107;-81
2022/03/09 06:32:47;;;;;;;16.83;5.68;;;;;;;7.06;32.74;99162.72;4488735;31;20108;-82
2022/03/09 06:35:14;;;;;;;14.73;5.10;;;;;;;7.15;32.31;99166.81;4488958;31;20100;-82
2022/03/09 06:37:40;;;;;;;16.48;5.95;;;;;;;7.06;32.39;99155.72;4474648;31;20107;-82
2022/03/09 06:40:06;;;;;;;15.23;6.22;;;;;;;7.02;32.75;99164.59;4486148;32;20382;-83
2022/03/09 06:42:32;;;;;;;14.20;6.10;;;;;;;6.91;33.29;99171.09;4472943;32;20497;-82
2022/03/09 06:44:57;;;;;;;21.52;6.20;;;;;;;7.01;33.24;99162.91;4487438;31;20085;-82
2022/03/09 06:47:23;;;;;;;17.02;6.45;;;;;;;7.09;33.46;99160.03;4465317;32;20111;-82
2022/03/09 06:49:49;;;;;;;17.92;6.97;;;;;;;7.08;33.41;99171.38;4472926;32;20096;-82
2022/03/09 06:52:15;;;;;;;15.20;6.72;;;;;;;7.05;33.55;99174.97;4472877;32;20104;-81
2022/03/09 06:54:40;;;;;;;15.60;6.60;;;;;;;7.20;33.47;99172.72;4487112;32;20346;-81
2022/03/09 06:57:07;;;;;;;14.98;6.85;;;;;;;7.46;33.29;99172.69;4472498;32;20111;-82
2022/03/09 06:59:32;;;;;;;15.88;6.70;;;;;;;7.56;33.41;99183.69;4472812;32;20097;-81
2022/03/09 07:01:58;;;;;;;18.83;6.68;;;;;;;7.76;33.43;99176.84;4487592;31;20455;-80
2022/03/09 07:04:23;;;;;;;15.63;6.90;;;;;;;7.85;33.24;99174.75;4485961;32;20123;-81
2022/03/09 07:06:49;;;;;;;18.23;7.10;;;;;;;7.78;33.35;99169.78;4494493;31;20096;-80
2022/03/09 07:09:14;;;;;;;19.40;7.72;;;;;;;8.06;33.17;99174.88;4488630;31;20084;-80
2022/03/09 07:11:41;;;;;;;19.23;7.80;;;;;;;8.19;33.02;99175.22;4503093;31;20126;-82
2022/03/09 07:14:07;;;;;;;17.98;8.82;;;;;;;8.39;32.98;99177.09;4488822;31;20784;-84
2022/03/09 07:16:32;;;;;;;20.15;8.48;;;;;;;8.46;33.08;99184.72;4502833;31;20084;-82
2022/03/09 07:18:57;;;;;;;19.15;8.05;;;;;;;8.42;33.23;99193.63;4475701;31;20092;-90
2022/03/09 07:21:23;;;;;;;17.87;9.15;;;;;;;8.38;33.19;99199.88;4502913;31;20344;-82
2022/03/09 07:23:48;;;;;;;20.85;9.40;;;;;;;8.46;33.00;99202.25;4488498;31;20388;-82
2022/03/09 07:26:14;;;;;;;20.90;8.88;;;;;;;8.31;33.42;99206.28;4502916;31;20084;-82
2022/03/09 07:28:40;;;;;;;19.35;9.52;;;;;;;8.19;33.90;99202.34;4488433;31;20064;-82
2022/03/09 07:31:05;;;;;;;34.83;9.75;;;;;;;8.45;33.38;99198.72;4502827;31;20129;-82
2022/03/09 07:33:30;;;;;;;25.17;8.73;;;;;;;8.37;33.37;99179.78;4499474;31;101241;-81
2022/03/09 07:35:56;;;;;;;23.23;8.85;;;;;;;8.32;33.59;99173.84;4499753;31;20122;-90
2022/03/09 07:38:22;;;;;;;24.10;8.65;;;;;;;8.59;33.45;99155.31;4488590;31;20141;-82
2022/03/09 07:40:48;;;;;;;20.77;8.30;;;;;;;8.51;33.30;99147.75;4502754;31;20486;-80
2022/03/09 07:43:13;;;;;;;18.27;6.40;;;;;;;8.68;33.05;99156.72;4502660;31;20088;-79
2022/03/09 07:45:39;;;;;;;16.12;6.78;;;;;;;8.76;31.30;99162.53;4498411;31;20141;-81
2022/03/09 07:48:04;;;;;;;17.15;6.68;;;;;;;8.78;31.02;99156.28;4486974;32;20114;-81
2022/03/09 07:50:30;;;;;;;16.37;6.28;;;;;;;8.90;30.89;99154.91;4486846;31;20119;-79
2022/03/09 07:52:56;;;;;;;25.27;7.97;;;;;;;9.03;31.21;99163.13;4485600;32;20108;-81
2022/03/09 07:55:22;;;;;;;16.40;7.18;;;;;;;9.20;31.07;99158.00;4485935;31;20440;-83
2022/03/09 07:57:47;;;;;;;18.73;8.05;;;;;;;9.28;31.42;99160.31;4484111;31;20131;-79
2022/03/09 08:00:13;;;;;;;19.50;8.63;;;;;;;9.28;31.77;99157.69;4502538;31;20110;-81
2022/03/09 08:02:40;;;;;;;18.83;9.43;;;;;;;9.17;32.12;99163.41;4502639;31;20118;-82
2022/03/09 08:05:05;;;;;;;18.87;9.25;;;;;;;9.33;32.13;99157.47;4483540;31;20127;-80
2022/03/09 08:07:31;;;;;;;20.48;9.40;;;;;;;9.33;32.26;99168.00;4492822;31;20417;-80
2022/03/09 08:09:57;;;;;;;21.33;9.45;;;;;;;9.29;32.26;99155.91;4486677;31;20133;-78
2022/03/09 08:12:22;;;;;;;20.40;8.65;;;;;;;9.23;32.26;99150.00;4482861;31;20103;-80
2022/03/09 08:14:48;;;;;;;17.45;8.15;;;;;;;9.25;32.40;99150.78;4491671;31;20157;-80
2022/03/09 08:17:13;;;;;;;22.80;9.48;;;;;;;9.05;32.52;99151.62;4489567;31;20143;-79
2022/03/09 08:19:39;;;;;;;17.98;8.48;;;;;;;9.44;32.17;99152.59;4486765;31;20111;-81
2022/03/09 08:22:04;;;;;;;17.85;8.55;;;;;;;9.79;31.90;99145.78;4497048;31;20100;-80
2022/03/09 08:24:32;;;;;;;18.37;8.50;;;;;;;9.44;32.15;99135.06;4502435;31;20111;-81
2022/03/09 08:26:57;;;;;;;19.12;8.25;;;;;;;9.62;31.76;99143.91;4502271;31;20107;-81
2022/03/09 08:29:23;;;;;;;17.77;8.05;;;;;;;9.54;32.00;99138.16;4502277;31;20341;-78
2022/03/09 08:31:48;;;;;;;18.27;8.45;;;;;;;9.91;31.27;99141.72;4487968;31;20103;-80
2022/03/09 08:34:14;;;;;;;18.10;7.80;;;;;;;9.53;31.61;99141.69;4487982;31;20083;-81
2022/03/09 08:36:40;;;;;;;17.75;8.18;;;;;;;9.25;32.43;99149.91;4502117;31;20431;-81
2022/03/09 08:39:05;;;;;;;17.23;8.18;;;;;;;9.20;32.67;99144.03;4486593;31;20195;-81
2022/03/09 08:41:31;;;;;;;15.32;7.47;;;;;;;9.40;32.57;99140.53;4486430;31;20144;-80
2022/03/09 08:43:56;;;;;;;15.27;6.70;;;;;;;9.22;32.82;99137.78;4486349;31;20477;-80
2022/03/09 08:46:22;;;;;;;20.98;7.45;;;;;;;9.44;32.49;99132.44;4485564;31;20508;-80
2022/03/09 08:48:47;;;;;;;16.35;7.72;;;;;;;9.47;32.87;99127.97;4486344;31;20483;-79
2022/03/09 08:51:13;;;;;;;16.10;6.55;;;;;;;9.45;32.66;99125.41;4487127;31;20103;-80
2022/03/09 08:53:38;;;;;;;14.70;6.10;;;;;;;9.31;32.72;99119.88;4479259;32;20097;-79
2022/03/09 08:56:07;;;;;;;16.87;5.68;;;;;;;9.56;32.25;99122.28;4487238;31;20072;-80
2022/03/09 08:58:34;;;;;;;13.13;5.37;;;;;;;9.36;32.09;99120.53;4486218;31;20144;-79
2022/03/09 09:01:00;;;;;;;13.00;5.65;;;;;;;9.45;32.35;99122.78;4486634;31;20092;-80
2022/03/09 09:03:25;;;;;;;14.18;5.82;;;;;;;9.50;32.20;99119.94;4485359;32;20129;-80
2022/03/09 09:05:52;;;;;;;18.83;6.35;;;;;;;9.75;31.77;99117.03;4485165;32;20092;-80
2022/03/09 09:08:18;;;;;;;15.40;6.68;;;;;;;9.67;32.21;99119.16;4488415;31;20104;-80
2022/03/09 09:10:44;;;;;;;14.68;5.93;;;;;;;10.01;31.53;99106.16;4488464;31;20084;-80
2022/03/09 09:13:10;;;;;;;15.18;5.80;;;;;;;10.07;31.55;99107.66;4474017;32;20122;-81
2022/03/09 09:15:36;;;;;;;21.15;6.75;;;;;;;10.01;31.75;99105.31;4488128;32;20512;-80
2022/03/09 09:18:03;;;;;;;15.60;5.97;;;;;;;10.07;31.44;99102.37;4487169;32;20140;-80
2022/03/09 09:20:29;;;;;;;19.02;6.50;;;;;;;9.84;32.14;99106.94;4488412;31;20436;-80
2022/03/09 09:22:55;;;;;;;16.85;6.70;;;;;;;9.87;32.19;99107.72;4498561;31;20100;-81
2022/03/09 09:25:23;;;;;;;15.13;6.05;;;;;;;9.74;32.19;99112.72;4504117;31;20106;-80
2022/03/09 09:27:49;;;;;;;15.35;5.87;;;;;;;9.64;32.63;99115.75;4484379;31;20096;-80
2022/03/09 09:30:15;;;;;;;18.05;6.62;;;;;;;9.82;32.54;99115.84;4489206;31;20506;-80
2022/03/09 09:32:40;;;;;;;19.35;6.05;;;;;;;9.52;33.00;99118.06;4503858;31;20478;-80
2022/03/09 09:35:06;;;;;;;17.05;7.07;;;;;;;9.67;32.98;99113.91;4503709;31;20092;-80
2022/03/09 09:37:31;;;;;;;21.50;7.68;;;;;;;9.89;32.75;99114.63;4503647;31;20084;-80
2022/03/09 09:39:57;;;;;;;18.85;7.35;;;;;;;9.52;33.11;99129.47;4503744;31;20321;-80
2022/03/09 09:42:30;;;;;;;16.52;6.85;;;;;;;9.50;33.61;99130.44;4503761;31;20084;-80
2022/03/09 09:45:00;;;;;;;16.55;6.95;;;;;;;9.87;32.99;99119.13;4489947;31;20110;-80
2022/03/09 09:47:27;;;;;;;21.50;8.13;;;;;;;9.92;33.05;99121.53;4489447;31;20134;-81
2022/03/09 09:49:53;;;;;;;19.00;7.60;;;;;;;10.16;32.87;99125.66;4489095;31;20433;-77
2022/03/09 09:52:25;;;;;;;17.45;7.45;;;;;;;10.13;32.87;99125.78;4503413;31;20106;-80
2022/03/09 09:54:55;;;;;;;16.25;7.45;;;;;;;9.82;33.39;99126.38;4493044;31;20448;-77
2022/03/09 09:57:22;;;;;;;17.90;8.20;;;;;;;9.62;33.72;99120.22;4491361;31;20169;-80
2022/03/09 09:59:48;;;;;;;17.40;7.37;;;;;;;9.77;33.74;99117.81;4490298;31;20092;-78
2022/03/09 10:02:13;;;;;;;15.65;7.07;;;;;;;9.89;33.51;99117.28;4476960;31;20084;-77
2022/03/09 10:04:40;;;;;;;15.45;7.68;;;;;;;9.51;33.86;99119.84;4492790;31;20492;-77
2022/03/09 10:07:05;;;;;;;18.15;7.82;;;;;;;9.05;34.76;99119.25;4494771;31;20125;-79
2022/03/09 10:09:35;;;;;;;18.45;8.00;;;;;;;9.13;34.84;99122.41;4493237;31;20136;-79
2022/03/09 10:12:00;;;;;;;17.62;7.78;;;;;;;8.90;35.28;99122.53;4475832;32;20110;-82
2022/03/09 10:14:42;;;;;;;17.40;7.50;;;;;;;9.41;34.41;99123.84;4473927;31;20115;-82
2022/03/09 10:17:13;;;;;;;18.08;7.60;;;;;;;9.69;34.28;99127.84;4471974;32;20096;-82
2022/03/09 10:19:44;;;;;;;15.45;6.78;;;;;;;9.54;34.38;99121.50;4488246;31;20241;-80
2022/03/09 10:22:29;;;;;;;14.85;6.60;;;;;;;9.88;33.72;99104.19;4472201;32;20081;-80
2022/03/09 10:24:56;;;;;;;15.93;6.35;;;;;;;9.92;33.52;99125.00;4489090;31;20127;-81
2022/03/09 10:27:31;;;;;;;14.57;6.70;;;;;;;9.77;33.88;99123.06;4487703;31;20100;-81
2022/03/09 10:29:56;;;;;;;16.17;6.95;;;;;;;10.04;33.64;99119.19;4486520;32;20095;-81
2022/03/09 10:32:24;;;;;;;17.37;7.87;;;;;;;10.08;33.85;99111.13;4490553;31;20413;-82
2022/03/09 10:34:49;;;;;;;15.02;7.35;;;;;;;10.10;33.76;99104.00;4478056;31;20469;-81
2022/03/09 10:37:15;;;;;;;18.12;7.90;;;;;;;10.24;33.58;99089.25;4491552;31;20128;-81
2022/03/09 10:39:40;;;;;;;17.08;7.12;;;;;;;10.35;33.57;99082.66;4483119;31;20099;-81
2022/03/09 10:42:26;;;;;;;18.45;7.78;;;;;;;10.52;33.34;99085.31;4488272;31;20126;-81
2022/03/09 10:44:52;;;;;;;19.45;7.95;;;;;;;10.10;34.22;99089.09;4486206;31;20115;-81
2022/03/09 10:47:33;;;;;;;17.67;8.02;;;;;;;10.61;33.36;99073.47;4477060;31;20811;-81
2022/03/09 10:50:08;;;;;;;15.63;7.70;;;;;;;10.74;33.11;99085.09;4493157;31;20212;-81
2022/03/09 10:52:51;;;;;;;20.50;8.82;;;;;;;10.63;33.13;99071.59;4486362;31;20088;-82
2022/03/09 10:55:21;;;;;;;16.60;8.00;;;;;;;10.53;33.54;99067.72;4488267;31;20092;-82
2022/03/09 10:57:46;;;;;;;18.20;8.13;;;;;;;10.28;33.72;99070.69;4478234;31;20100;-82
2022/03/09 11:00:12;;;;;;;20.45;9.70;;;;;;;10.23;34.55;99068.28;4478536;31;20382;-82
2022/03/09 11:02:51;;;;;;;18.05;8.07;;;;;;;10.05;34.80;99064.75;4474908;32;20092;-82
2022/03/09 11:05:21;;;;;;;;;;;;;;;9.84;35.33;99056.09;4488873;31;20128;-80
2022/03/09 11:07:47;;;;;;;20.60;8.70;;;;;;;10.07;34.88;99056.78;4490892;31;19984;-80
2022/03/09 11:10:13;;;;;;;17.87;8.85;;;;;;;10.03;34.96;99049.03;4467050;31;20340;-81
2022/03/09 11:12:39;;;;;;;20.17;8.85;;;;;;;10.30;34.26;99056.53;4489433;31;20119;-80
2022/03/09 11:15:06;;;;;;;21.52;10.10;;;;;;;10.26;34.54;99060.22;4477914;31;20088;-80
2022/03/09 11:17:33;;;;;;;19.23;9.37;;;;;;;10.38;34.45;99046.47;4491458;31;20405;-80
2022/03/09 11:19:59;;;;;;;19.00;8.98;;;;;;;10.27;35.05;99058.44;4486275;31;20095;-81
2022/03/09 11:22:24;;;;;;;19.67;9.80;;;;;;;10.32;34.51;99051.22;4480047;31;20152;-81
2022/03/09 11:24:52;;;;;;;21.23;9.75;;;;;;;10.28;34.53;99045.22;4476210;31;20124;-82
2022/03/09 11:27:18;;;;;;;21.48;9.60;;;;;;;10.22;34.79;99048.16;4477374;32;20088;-82
2022/03/09 11:29:43;;;;;;;21.98;10.18;;;;;;;10.32;34.99;99049.44;4471188;32;20152;-83